sensor_id;sensor_type;location;lat;lon;timestamp;P1;durP1;ratioP1;P2;durP2;ratioP2
23310;SDS011;11828;51.508;18.118;2024-03-08T00:01:31;76.35;;;32.45;;
23310;SDS011;11828;51.508;18.118;2024-03-08T00:03:58;71.03;;;32.53;;
23310;SDS011;11828;51.508;18.118;2024-03-08T00:06:24;76.88;;;32.90;;
23310;SDS011;11828;51.508;18.118;2024-03-08T00:08:51;79.65;;;31.60;;
23310;SDS011;11828;51.508;18.118;2024-03-08T00:11:18;70.47;;;30.58;;
23310;SDS011;11828;51.508;18.118;2024-03-08T00:13:45;87.20;;;34.22;;
23310;SDS011;11828;51.508;18.118;2024-03-08T00:16:12;85.25;;;34.72;;
23310;SDS011;11828;51.508;18.118;2024-03-08T00:18:39;77.75;;;33.60;;
23310;SDS011;11828;51.508;18.118;2024-03-08T00:21:05;84.25;;;35.50;;
23310;SDS011;11828;51.508;18.118;2024-03-08T00:23:34;77.28;;;34.42;;
23310;SDS011;11828;51.508;18.118;2024-03-08T00:26:01;80.85;;;36.05;;
23310;SDS011;11828;51.508;18.118;2024-03-08T00:28:29;95.28;;;37.50;;
23310;SDS011;11828;51.508;18.118;2024-03-08T00:30:56;89.28;;;38.80;;
23310;SDS011;11828;51.508;18.118;2024-03-08T00:33:23;93.00;;;39.30;;
23310;SDS011;11828;51.508;18.118;2024-03-08T00:35:50;97.32;;;40.95;;
23310;SDS011;11828;51.508;18.118;2024-03-08T00:38:17;93.32;;;39.10;;
23310;SDS011;11828;51.508;18.118;2024-03-08T00:40:44;95.53;;;40.05;;
23310;SDS011;11828;51.508;18.118;2024-03-08T00:43:11;91.32;;;41.22;;
23310;SDS011;11828;51.508;18.118;2024-03-08T00:45:37;97.65;;;41.22;;
23310;SDS011;11828;51.508;18.118;2024-03-08T00:48:04;93.53;;;41.30;;
23310;SDS011;11828;51.508;18.118;2024-03-08T00:50:31;111.03;;;44.10;;
23310;SDS011;11828;51.508;18.118;2024-03-08T00:52:59;108.10;;;45.63;;
23310;SDS011;11828;51.508;18.118;2024-03-08T00:55:26;98.10;;;43.92;;
23310;SDS011;11828;51.508;18.118;2024-03-08T00:57:53;107.80;;;45.03;;
23310;SDS011;11828;51.508;18.118;2024-03-08T01:00:19;105.18;;;45.83;;
23310;SDS011;11828;51.508;18.118;2024-03-08T01:02:47;99.70;;;45.28;;
23310;SDS011;11828;51.508;18.118;2024-03-08T01:05:13;120.30;;;47.33;;
23310;SDS011;11828;51.508;18.118;2024-03-08T01:07:41;108.05;;;45.38;;
23310;SDS011;11828;51.508;18.118;2024-03-08T01:10:07;113.25;;;44.58;;
23310;SDS011;11828;51.508;18.118;2024-03-08T01:12:36;112.53;;;43.72;;
23310;SDS011;11828;51.508;18.118;2024-03-08T01:15:02;108.32;;;44.90;;
23310;SDS011;11828;51.508;18.118;2024-03-08T01:17:30;100.07;;;41.97;;
23310;SDS011;11828;51.508;18.118;2024-03-08T01:19:57;116.93;;;44.22;;
23310;SDS011;11828;51.508;18.118;2024-03-08T01:22:24;103.63;;;42.08;;
23310;SDS011;11828;51.508;18.118;2024-03-08T01:24:51;101.05;;;41.78;;
23310;SDS011;11828;51.508;18.118;2024-03-08T01:27:17;104.40;;;40.95;;
23310;SDS011;11828;51.508;18.118;2024-03-08T01:29:43;97.30;;;41.47;;
23310;SDS011;11828;51.508;18.118;2024-03-08T01:32:10;93.75;;;42.17;;
23310;SDS011;11828;51.508;18.118;2024-03-08T01:34:37;105.50;;;41.63;;
23310;SDS011;11828;51.508;18.118;2024-03-08T01:37:04;97.30;;;40.17;;
23310;SDS011;11828;51.508;18.118;2024-03-08T01:39:31;104.10;;;41.85;;
23310;SDS011;11828;51.508;18.118;2024-03-08T01:41:59;92.47;;;39.00;;
23310;SDS011;11828;51.508;18.118;2024-03-08T01:44:26;86.40;;;37.97;;
23310;SDS011;11828;51.508;18.118;2024-03-08T01:46:52;88.03;;;39.42;;
23310;SDS011;11828;51.508;18.118;2024-03-08T01:49:20;94.57;;;39.00;;
23310;SDS011;11828;51.508;18.118;2024-03-08T01:51:49;98.78;;;41.35;;
23310;SDS011;11828;51.508;18.118;2024-03-08T01:54:16;94.88;;;39.25;;
23310;SDS011;11828;51.508;18.118;2024-03-08T01:56:45;92.22;;;39.47;;
23310;SDS011;11828;51.508;18.118;2024-03-08T01:59:13;87.65;;;36.95;;
23310;SDS011;11828;51.508;18.118;2024-03-08T02:01:40;86.00;;;37.80;;
23310;SDS011;11828;51.508;18.118;2024-03-08T02:04:07;81.82;;;36.47;;
23310;SDS011;11828;51.508;18.118;2024-03-08T02:06:33;83.70;;;37.33;;
23310;SDS011;11828;51.508;18.118;2024-03-08T02:08:59;78.22;;;35.88;;
23310;SDS011;11828;51.508;18.118;2024-03-08T02:11:32;83.40;;;35.22;;
23310;SDS011;11828;51.508;18.118;2024-03-08T02:13:59;83.20;;;35.58;;
23310;SDS011;11828;51.508;18.118;2024-03-08T02:16:27;76.28;;;34.97;;
23310;SDS011;11828;51.508;18.118;2024-03-08T02:18:53;81.38;;;36.03;;
23310;SDS011;11828;51.508;18.118;2024-03-08T02:21:20;75.40;;;35.72;;
23310;SDS011;11828;51.508;18.118;2024-03-08T02:23:46;77.15;;;34.78;;
23310;SDS011;11828;51.508;18.118;2024-03-08T02:26:13;75.72;;;32.53;;
23310;SDS011;11828;51.508;18.118;2024-03-08T02:28:40;73.03;;;32.28;;
23310;SDS011;11828;51.508;18.118;2024-03-08T02:31:09;74.90;;;32.63;;
23310;SDS011;11828;51.508;18.118;2024-03-08T02:33:35;83.68;;;33.35;;
23310;SDS011;11828;51.508;18.118;2024-03-08T02:36:02;75.10;;;33.83;;
23310;SDS011;11828;51.508;18.118;2024-03-08T02:38:31;76.47;;;32.60;;
23310;SDS011;11828;51.508;18.118;2024-03-08T02:40:58;131.07;;;66.38;;
23310;SDS011;11828;51.508;18.118;2024-03-08T02:43:25;189.05;;;113.68;;
23310;SDS011;11828;51.508;18.118;2024-03-08T02:45:51;165.02;;;97.47;;
23310;SDS011;11828;51.508;18.118;2024-03-08T02:48:18;146.75;;;92.10;;
23310;SDS011;11828;51.508;18.118;2024-03-08T02:50:45;81.95;;;47.08;;
23310;SDS011;11828;51.508;18.118;2024-03-08T02:53:11;78.57;;;32.97;;
23310;SDS011;11828;51.508;18.118;2024-03-08T02:55:39;77.60;;;32.65;;
23310;SDS011;11828;51.508;18.118;2024-03-08T02:58:07;84.18;;;33.05;;
23310;SDS011;11828;51.508;18.118;2024-03-08T03:00:36;70.95;;;33.20;;
23310;SDS011;11828;51.508;18.118;2024-03-08T03:03:03;67.85;;;32.10;;
23310;SDS011;11828;51.508;18.118;2024-03-08T03:05:32;75.10;;;32.95;;
23310;SDS011;11828;51.508;18.118;2024-03-08T03:07:59;72.90;;;32.70;;
23310;SDS011;11828;51.508;18.118;2024-03-08T03:10:26;72.47;;;30.63;;
23310;SDS011;11828;51.508;18.118;2024-03-08T03:12:53;67.55;;;29.70;;
23310;SDS011;11828;51.508;18.118;2024-03-08T03:15:20;69.95;;;30.20;;
23310;SDS011;11828;51.508;18.118;2024-03-08T03:17:47;71.82;;;30.42;;
23310;SDS011;11828;51.508;18.118;2024-03-08T03:20:18;68.28;;;30.25;;
23310;SDS011;11828;51.508;18.118;2024-03-08T03:22:51;65.28;;;29.30;;
23310;SDS011;11828;51.508;18.118;2024-03-08T03:25:18;66.63;;;29.33;;
23310;SDS011;11828;51.508;18.118;2024-03-08T03:27:54;65.50;;;29.83;;
23310;SDS011;11828;51.508;18.118;2024-03-08T03:30:23;59.47;;;27.77;;
23310;SDS011;11828;51.508;18.118;2024-03-08T03:32:52;78.55;;;29.88;;
23310;SDS011;11828;51.508;18.118;2024-03-08T03:35:20;69.35;;;29.73;;
23310;SDS011;11828;51.508;18.118;2024-03-08T03:37:47;78.32;;;31.92;;
23310;SDS011;11828;51.508;18.118;2024-03-08T03:40:28;65.35;;;27.77;;
23310;SDS011;11828;51.508;18.118;2024-03-08T03:42:55;60.05;;;27.40;;
23310;SDS011;11828;51.508;18.118;2024-03-08T03:45:22;64.88;;;29.67;;
23310;SDS011;11828;51.508;18.118;2024-03-08T03:47:49;67.43;;;30.80;;
23310;SDS011;11828;51.508;18.118;2024-03-08T03:50:17;64.20;;;29.52;;
23310;SDS011;11828;51.508;18.118;2024-03-08T03:52:45;62.92;;;28.70;;
23310;SDS011;11828;51.508;18.118;2024-03-08T03:55:14;88.03;;;49.47;;
23310;SDS011;11828;51.508;18.118;2024-03-08T03:57:40;89.95;;;44.20;;
23310;SDS011;11828;51.508;18.118;2024-03-08T04:00:07;73.80;;;30.58;;
23310;SDS011;11828;51.508;18.118;2024-03-08T04:02:38;65.85;;;30.70;;
23310;SDS011;11828;51.508;18.118;2024-03-08T04:05:09;106.50;;;61.78;;
23310;SDS011;11828;51.508;18.118;2024-03-08T04:07:37;65.25;;;29.55;;
23310;SDS011;11828;51.508;18.118;2024-03-08T04:10:11;66.38;;;30.33;;
23310;SDS011;11828;51.508;18.118;2024-03-08T04:12:37;67.55;;;31.83;;
23310;SDS011;11828;51.508;18.118;2024-03-08T04:15:04;67.68;;;31.17;;
23310;SDS011;11828;51.508;18.118;2024-03-08T04:17:32;68.93;;;30.08;;
23310;SDS011;11828;51.508;18.118;2024-03-08T04:20:03;73.75;;;32.78;;
23310;SDS011;11828;51.508;18.118;2024-03-08T04:22:37;72.78;;;32.40;;
23310;SDS011;11828;51.508;18.118;2024-03-08T04:25:07;69.80;;;31.75;;
23310;SDS011;11828;51.508;18.118;2024-03-08T04:27:35;67.07;;;30.80;;
23310;SDS011;11828;51.508;18.118;2024-03-08T04:30:02;70.35;;;31.80;;
23310;SDS011;11828;51.508;18.118;2024-03-08T04:32:32;66.35;;;31.02;;
23310;SDS011;11828;51.508;18.118;2024-03-08T04:35:00;69.40;;;31.15;;
23310;SDS011;11828;51.508;18.118;2024-03-08T04:37:27;69.47;;;31.98;;
23310;SDS011;11828;51.508;18.118;2024-03-08T04:39:55;73.93;;;32.88;;
23310;SDS011;11828;51.508;18.118;2024-03-08T04:42:22;67.63;;;32.67;;
23310;SDS011;11828;51.508;18.118;2024-03-08T04:44:48;73.80;;;31.98;;
23310;SDS011;11828;51.508;18.118;2024-03-08T04:47:14;67.97;;;30.75;;
23310;SDS011;11828;51.508;18.118;2024-03-08T04:49:43;67.78;;;32.05;;
23310;SDS011;11828;51.508;18.118;2024-03-08T04:52:09;69.32;;;32.22;;
23310;SDS011;11828;51.508;18.118;2024-03-08T04:54:36;73.93;;;31.88;;
23310;SDS011;11828;51.508;18.118;2024-03-08T04:57:02;66.60;;;30.27;;
23310;SDS011;11828;51.508;18.118;2024-03-08T04:59:30;70.85;;;29.95;;
23310;SDS011;11828;51.508;18.118;2024-03-08T05:01:56;77.30;;;32.08;;
23310;SDS011;11828;51.508;18.118;2024-03-08T05:04:24;69.43;;;30.42;;
23310;SDS011;11828;51.508;18.118;2024-03-08T05:06:50;91.35;;;32.72;;
23310;SDS011;11828;51.508;18.118;2024-03-08T05:09:17;80.55;;;31.58;;
23310;SDS011;11828;51.508;18.118;2024-03-08T05:11:44;84.45;;;31.73;;
23310;SDS011;11828;51.508;18.118;2024-03-08T05:14:11;86.13;;;30.42;;
23310;SDS011;11828;51.508;18.118;2024-03-08T05:16:44;71.95;;;29.98;;
23310;SDS011;11828;51.508;18.118;2024-03-08T05:19:15;61.30;;;28.00;;
23310;SDS011;11828;51.508;18.118;2024-03-08T05:21:43;61.50;;;28.48;;
23310;SDS011;11828;51.508;18.118;2024-03-08T05:24:13;65.80;;;28.60;;
23310;SDS011;11828;51.508;18.118;2024-03-08T05:26:43;63.60;;;28.60;;
23310;SDS011;11828;51.508;18.118;2024-03-08T05:29:11;70.55;;;30.98;;
23310;SDS011;11828;51.508;18.118;2024-03-08T05:31:48;63.20;;;28.80;;
23310;SDS011;11828;51.508;18.118;2024-03-08T05:34:17;70.60;;;30.38;;
23310;SDS011;11828;51.508;18.118;2024-03-08T05:36:47;80.65;;;32.65;;
23310;SDS011;11828;51.508;18.118;2024-03-08T05:39:16;68.93;;;31.05;;
23310;SDS011;11828;51.508;18.118;2024-03-08T05:41:44;64.45;;;28.10;;
23310;SDS011;11828;51.508;18.118;2024-03-08T05:44:11;61.85;;;29.55;;
23310;SDS011;11828;51.508;18.118;2024-03-08T05:46:39;67.40;;;30.50;;
23310;SDS011;11828;51.508;18.118;2024-03-08T05:49:06;61.10;;;28.60;;
23310;SDS011;11828;51.508;18.118;2024-03-08T05:51:36;62.45;;;28.67;;
23310;SDS011;11828;51.508;18.118;2024-03-08T05:54:07;59.08;;;27.00;;
23310;SDS011;11828;51.508;18.118;2024-03-08T05:56:36;69.32;;;29.67;;
23310;SDS011;11828;51.508;18.118;2024-03-08T05:59:04;65.55;;;29.23;;
23310;SDS011;11828;51.508;18.118;2024-03-08T06:01:31;54.08;;;26.10;;
23310;SDS011;11828;51.508;18.118;2024-03-08T06:03:58;52.58;;;24.48;;
23310;SDS011;11828;51.508;18.118;2024-03-08T06:06:25;51.88;;;24.27;;
23310;SDS011;11828;51.508;18.118;2024-03-08T06:08:52;58.13;;;25.70;;
23310;SDS011;11828;51.508;18.118;2024-03-08T06:11:19;60.05;;;26.35;;
23310;SDS011;11828;51.508;18.118;2024-03-08T06:13:46;49.67;;;22.67;;
23310;SDS011;11828;51.508;18.118;2024-03-08T06:16:13;49.38;;;22.80;;
23310;SDS011;11828;51.508;18.118;2024-03-08T06:18:40;46.35;;;20.98;;
23310;SDS011;11828;51.508;18.118;2024-03-08T06:21:07;58.22;;;26.55;;
23310;SDS011;11828;51.508;18.118;2024-03-08T06:23:38;62.22;;;27.73;;
23310;SDS011;11828;51.508;18.118;2024-03-08T06:26:05;136.48;;;50.08;;
23310;SDS011;11828;51.508;18.118;2024-03-08T06:28:32;86.93;;;36.60;;
23310;SDS011;11828;51.508;18.118;2024-03-08T06:31:00;75.28;;;33.25;;
23310;SDS011;11828;51.508;18.118;2024-03-08T06:33:27;62.88;;;30.38;;
23310;SDS011;11828;51.508;18.118;2024-03-08T06:35:54;57.58;;;25.35;;
23310;SDS011;11828;51.508;18.118;2024-03-08T06:38:25;44.35;;;23.67;;
23310;SDS011;11828;51.508;18.118;2024-03-08T06:40:52;40.45;;;20.55;;
23310;SDS011;11828;51.508;18.118;2024-03-08T06:43:20;38.58;;;20.92;;
23310;SDS011;11828;51.508;18.118;2024-03-08T06:45:46;46.55;;;22.13;;
23310;SDS011;11828;51.508;18.118;2024-03-08T06:48:16;37.05;;;20.40;;
23310;SDS011;11828;51.508;18.118;2024-03-08T06:50:43;35.70;;;21.17;;
23310;SDS011;11828;51.508;18.118;2024-03-08T06:53:11;47.60;;;22.83;;
23310;SDS011;11828;51.508;18.118;2024-03-08T06:55:39;36.08;;;20.45;;
23310;SDS011;11828;51.508;18.118;2024-03-08T06:58:06;45.45;;;24.25;;
23310;SDS011;11828;51.508;18.118;2024-03-08T07:00:33;47.05;;;25.48;;
23310;SDS011;11828;51.508;18.118;2024-03-08T07:03:00;42.92;;;23.67;;
23310;SDS011;11828;51.508;18.118;2024-03-08T07:05:27;64.82;;;28.10;;
23310;SDS011;11828;51.508;18.118;2024-03-08T07:07:54;42.65;;;24.13;;
23310;SDS011;11828;51.508;18.118;2024-03-08T07:10:21;39.63;;;23.45;;
23310;SDS011;11828;51.508;18.118;2024-03-08T07:12:53;37.92;;;23.10;;
23310;SDS011;11828;51.508;18.118;2024-03-08T07:15:19;37.08;;;21.20;;
23310;SDS011;11828;51.508;18.118;2024-03-08T07:17:48;32.10;;;20.02;;
23310;SDS011;11828;51.508;18.118;2024-03-08T07:20:17;36.35;;;20.65;;
23310;SDS011;11828;51.508;18.118;2024-03-08T07:22:45;33.72;;;20.40;;
23310;SDS011;11828;51.508;18.118;2024-03-08T07:25:13;33.72;;;20.48;;
23310;SDS011;11828;51.508;18.118;2024-03-08T07:27:55;35.35;;;20.25;;
23310;SDS011;11828;51.508;18.118;2024-03-08T07:30:22;37.80;;;21.80;;
23310;SDS011;11828;51.508;18.118;2024-03-08T07:33:11;49.70;;;23.67;;
23310;SDS011;11828;51.508;18.118;2024-03-08T07:35:38;66.18;;;33.17;;
23310;SDS011;11828;51.508;18.118;2024-03-08T07:38:09;54.00;;;28.08;;
23310;SDS011;11828;51.508;18.118;2024-03-08T07:40:39;30.88;;;19.20;;
23310;SDS011;11828;51.508;18.118;2024-03-08T07:43:09;41.85;;;20.77;;
23310;SDS011;11828;51.508;18.118;2024-03-08T07:45:36;38.45;;;21.48;;
23310;SDS011;11828;51.508;18.118;2024-03-08T07:48:04;30.65;;;18.23;;
23310;SDS011;11828;51.508;18.118;2024-03-08T07:50:38;34.65;;;18.67;;
23310;SDS011;11828;51.508;18.118;2024-03-08T07:53:06;30.40;;;19.25;;
23310;SDS011;11828;51.508;18.118;2024-03-08T07:55:33;41.03;;;19.73;;
23310;SDS011;11828;51.508;18.118;2024-03-08T07:58:04;37.28;;;19.92;;
23310;SDS011;11828;51.508;18.118;2024-03-08T08:00:30;37.45;;;19.60;;
23310;SDS011;11828;51.508;18.118;2024-03-08T08:02:57;32.28;;;18.83;;
23310;SDS011;11828;51.508;18.118;2024-03-08T08:05:24;32.78;;;19.27;;
23310;SDS011;11828;51.508;18.118;2024-03-08T08:07:52;29.80;;;17.98;;
23310;SDS011;11828;51.508;18.118;2024-03-08T08:10:18;33.33;;;16.05;;
23310;SDS011;11828;51.508;18.118;2024-03-08T08:12:48;34.58;;;16.52;;
23310;SDS011;11828;51.508;18.118;2024-03-08T08:15:15;32.67;;;16.58;;
23310;SDS011;11828;51.508;18.118;2024-03-08T08:17:42;25.63;;;15.90;;
23310;SDS011;11828;51.508;18.118;2024-03-08T08:20:09;32.90;;;16.33;;
23310;SDS011;11828;51.508;18.118;2024-03-08T08:22:37;29.20;;;15.52;;
23310;SDS011;11828;51.508;18.118;2024-03-08T08:25:08;26.55;;;16.50;;
23310;SDS011;11828;51.508;18.118;2024-03-08T08:27:38;38.95;;;17.63;;
23310;SDS011;11828;51.508;18.118;2024-03-08T08:30:05;35.53;;;16.27;;
23310;SDS011;11828;51.508;18.118;2024-03-08T08:32:37;38.30;;;15.70;;
23310;SDS011;11828;51.508;18.118;2024-03-08T08:35:04;24.45;;;14.90;;
23310;SDS011;11828;51.508;18.118;2024-03-08T08:37:32;34.60;;;15.00;;
23310;SDS011;11828;51.508;18.118;2024-03-08T08:40:01;26.05;;;15.10;;
23310;SDS011;11828;51.508;18.118;2024-03-08T08:42:31;22.52;;;14.82;;
23310;SDS011;11828;51.508;18.118;2024-03-08T08:44:58;37.20;;;16.92;;
23310;SDS011;11828;51.508;18.118;2024-03-08T08:47:24;33.60;;;16.65;;
23310;SDS011;11828;51.508;18.118;2024-03-08T08:49:51;26.85;;;16.13;;
23310;SDS011;11828;51.508;18.118;2024-03-08T08:52:20;28.05;;;14.35;;
23310;SDS011;11828;51.508;18.118;2024-03-08T08:54:48;35.17;;;15.52;;
23310;SDS011;11828;51.508;18.118;2024-03-08T08:57:16;22.02;;;12.75;;
23310;SDS011;11828;51.508;18.118;2024-03-08T08:59:43;23.02;;;13.80;;
23310;SDS011;11828;51.508;18.118;2024-03-08T09:02:11;21.65;;;12.75;;
23310;SDS011;11828;51.508;18.118;2024-03-08T09:04:38;27.52;;;14.05;;
23310;SDS011;11828;51.508;18.118;2024-03-08T09:07:06;19.13;;;12.07;;
23310;SDS011;11828;51.508;18.118;2024-03-08T09:09:32;18.63;;;12.20;;
23310;SDS011;11828;51.508;18.118;2024-03-08T09:12:00;21.90;;;13.30;;
23310;SDS011;11828;51.508;18.118;2024-03-08T09:14:26;21.05;;;12.38;;
23310;SDS011;11828;51.508;18.118;2024-03-08T09:16:53;18.98;;;12.52;;
23310;SDS011;11828;51.508;18.118;2024-03-08T09:19:20;18.02;;;11.32;;
23310;SDS011;11828;51.508;18.118;2024-03-08T09:21:48;24.23;;;13.45;;
23310;SDS011;11828;51.508;18.118;2024-03-08T09:24:16;32.25;;;14.35;;
23310;SDS011;11828;51.508;18.118;2024-03-08T09:26:43;24.10;;;12.13;;
23310;SDS011;11828;51.508;18.118;2024-03-08T09:29:09;27.75;;;12.73;;
23310;SDS011;11828;51.508;18.118;2024-03-08T09:31:37;28.52;;;12.68;;
23310;SDS011;11828;51.508;18.118;2024-03-08T09:34:03;38.17;;;13.45;;
23310;SDS011;11828;51.508;18.118;2024-03-08T09:36:31;34.67;;;17.63;;
23310;SDS011;11828;51.508;18.118;2024-03-08T09:38:57;28.15;;;13.30;;
23310;SDS011;11828;51.508;18.118;2024-03-08T09:41:28;19.20;;;11.45;;
23310;SDS011;11828;51.508;18.118;2024-03-08T09:43:56;21.15;;;11.77;;
23310;SDS011;11828;51.508;18.118;2024-03-08T09:46:25;22.63;;;12.23;;
23310;SDS011;11828;51.508;18.118;2024-03-08T09:48:52;19.20;;;11.15;;
23310;SDS011;11828;51.508;18.118;2024-03-08T09:51:24;31.50;;;13.45;;
23310;SDS011;11828;51.508;18.118;2024-03-08T09:53:53;17.15;;;12.05;;
23310;SDS011;11828;51.508;18.118;2024-03-08T09:56:21;31.23;;;13.43;;
23310;SDS011;11828;51.508;18.118;2024-03-08T09:58:52;19.88;;;11.45;;
23310;SDS011;11828;51.508;18.118;2024-03-08T10:01:41;27.95;;;13.77;;
23310;SDS011;11828;51.508;18.118;2024-03-08T10:04:09;22.80;;;11.40;;
23310;SDS011;11828;51.508;18.118;2024-03-08T10:06:36;25.52;;;12.10;;
23310;SDS011;11828;51.508;18.118;2024-03-08T10:09:02;27.35;;;16.65;;
23310;SDS011;11828;51.508;18.118;2024-03-08T10:11:31;45.88;;;16.45;;
23310;SDS011;11828;51.508;18.118;2024-03-08T10:13:58;44.17;;;17.33;;
23310;SDS011;11828;51.508;18.118;2024-03-08T10:16:27;40.35;;;15.57;;
23310;SDS011;11828;51.508;18.118;2024-03-08T10:18:55;22.48;;;13.38;;
23310;SDS011;11828;51.508;18.118;2024-03-08T10:21:23;78.43;;;29.75;;
23310;SDS011;11828;51.508;18.118;2024-03-08T10:23:50;37.58;;;15.82;;
23310;SDS011;11828;51.508;18.118;2024-03-08T10:26:17;26.38;;;13.05;;
23310;SDS011;11828;51.508;18.118;2024-03-08T10:28:50;25.30;;;12.93;;
23310;SDS011;11828;51.508;18.118;2024-03-08T10:31:18;34.58;;;13.50;;
23310;SDS011;11828;51.508;18.118;2024-03-08T10:33:46;20.42;;;11.50;;
23310;SDS011;11828;51.508;18.118;2024-03-08T10:36:13;23.95;;;12.32;;
23310;SDS011;11828;51.508;18.118;2024-03-08T10:38:41;47.42;;;13.98;;
23310;SDS011;11828;51.508;18.118;2024-03-08T10:41:12;27.17;;;11.70;;
23310;SDS011;11828;51.508;18.118;2024-03-08T10:49:16;34.95;;;13.48;;
23310;SDS011;11828;51.508;18.118;2024-03-08T10:51:44;30.55;;;12.98;;
23310;SDS011;11828;51.508;18.118;2024-03-08T10:54:11;38.65;;;12.85;;
23310;SDS011;11828;51.508;18.118;2024-03-08T10:56:38;48.70;;;12.98;;
23310;SDS011;11828;51.508;18.118;2024-03-08T10:59:05;62.03;;;28.92;;
23310;SDS011;11828;51.508;18.118;2024-03-08T11:01:34;18.58;;;10.80;;
23310;SDS011;11828;51.508;18.118;2024-03-08T11:04:04;35.33;;;13.00;;
23310;SDS011;11828;51.508;18.118;2024-03-08T11:09:03;16.95;;;9.90;;
23310;SDS011;11828;51.508;18.118;2024-03-08T11:14:59;32.72;;;11.98;;
23310;SDS011;11828;51.508;18.118;2024-03-08T11:20:00;31.85;;;11.75;;
23310;SDS011;11828;51.508;18.118;2024-03-08T11:22:33;35.53;;;12.68;;
23310;SDS011;11828;51.508;18.118;2024-03-08T11:25:03;22.13;;;10.85;;
23310;SDS011;11828;51.508;18.118;2024-03-08T11:27:35;51.28;;;20.27;;
23310;SDS011;11828;51.508;18.118;2024-03-08T11:30:05;26.50;;;13.45;;
23310;SDS011;11828;51.508;18.118;2024-03-08T11:32:37;29.33;;;11.23;;
23310;SDS011;11828;51.508;18.118;2024-03-08T11:35:07;30.40;;;12.23;;
23310;SDS011;11828;51.508;18.118;2024-03-08T11:37:48;20.02;;;11.13;;
23310;SDS011;11828;51.508;18.118;2024-03-08T11:40:15;59.17;;;14.98;;
23310;SDS011;11828;51.508;18.118;2024-03-08T11:42:45;22.95;;;10.93;;
23310;SDS011;11828;51.508;18.118;2024-03-08T11:45:13;23.48;;;10.80;;
23310;SDS011;11828;51.508;18.118;2024-03-08T11:47:44;22.13;;;10.98;;
23310;SDS011;11828;51.508;18.118;2024-03-08T11:50:13;30.30;;;11.07;;
23310;SDS011;11828;51.508;18.118;2024-03-08T11:52:41;19.33;;;10.20;;
23310;SDS011;11828;51.508;18.118;2024-03-08T11:55:09;19.65;;;10.48;;
23310;SDS011;11828;51.508;18.118;2024-03-08T11:57:38;17.48;;;10.15;;
23310;SDS011;11828;51.508;18.118;2024-03-08T12:00:05;21.83;;;12.55;;
23310;SDS011;11828;51.508;18.118;2024-03-08T12:02:34;20.65;;;11.82;;
23310;SDS011;11828;51.508;18.118;2024-03-08T12:05:06;16.63;;;10.23;;
23310;SDS011;11828;51.508;18.118;2024-03-08T12:07:35;17.13;;;10.00;;
23310;SDS011;11828;51.508;18.118;2024-03-08T12:10:17;17.58;;;10.32;;
23310;SDS011;11828;51.508;18.118;2024-03-08T12:12:48;14.82;;;9.95;;
23310;SDS011;11828;51.508;18.118;2024-03-08T12:15:17;15.32;;;10.00;;
23310;SDS011;11828;51.508;18.118;2024-03-08T12:17:45;16.17;;;10.52;;
23310;SDS011;11828;51.508;18.118;2024-03-08T12:22:45;14.68;;;10.20;;
23310;SDS011;11828;51.508;18.118;2024-03-08T12:25:11;16.77;;;11.35;;
23310;SDS011;11828;51.508;18.118;2024-03-08T12:27:39;17.42;;;11.27;;
23310;SDS011;11828;51.508;18.118;2024-03-08T12:30:23;15.75;;;10.55;;
23310;SDS011;11828;51.508;18.118;2024-03-08T12:32:56;17.02;;;10.63;;
23310;SDS011;11828;51.508;18.118;2024-03-08T12:35:29;15.05;;;10.50;;
23310;SDS011;11828;51.508;18.118;2024-03-08T12:37:59;15.98;;;11.02;;
23310;SDS011;11828;51.508;18.118;2024-03-08T12:40:26;13.90;;;10.50;;
23310;SDS011;11828;51.508;18.118;2024-03-08T12:43:00;15.93;;;10.85;;
23310;SDS011;11828;51.508;18.118;2024-03-08T12:45:28;15.00;;;10.27;;
23310;SDS011;11828;51.508;18.118;2024-03-08T12:47:58;13.32;;;9.95;;
23310;SDS011;11828;51.508;18.118;2024-03-08T12:50:24;15.65;;;11.02;;
23310;SDS011;11828;51.508;18.118;2024-03-08T12:52:51;14.18;;;10.48;;
23310;SDS011;11828;51.508;18.118;2024-03-08T12:55:18;18.17;;;12.05;;
23310;SDS011;11828;51.508;18.118;2024-03-08T12:57:45;16.00;;;11.68;;
23310;SDS011;11828;51.508;18.118;2024-03-08T13:00:14;15.68;;;11.45;;
23310;SDS011;11828;51.508;18.118;2024-03-08T13:02:45;15.15;;;10.98;;
23310;SDS011;11828;51.508;18.118;2024-03-08T13:05:12;15.25;;;11.20;;
23310;SDS011;11828;51.508;18.118;2024-03-08T13:07:43;16.00;;;10.65;;
23310;SDS011;11828;51.508;18.118;2024-03-08T13:10:15;18.73;;;12.25;;
23310;SDS011;11828;51.508;18.118;2024-03-08T13:12:44;16.77;;;12.57;;
23310;SDS011;11828;51.508;18.118;2024-03-08T13:15:10;18.38;;;12.05;;
23310;SDS011;11828;51.508;18.118;2024-03-08T13:17:41;15.50;;;10.77;;
23310;SDS011;11828;51.508;18.118;2024-03-08T13:20:10;15.35;;;10.68;;
23310;SDS011;11828;51.508;18.118;2024-03-08T13:22:42;17.23;;;11.55;;
23310;SDS011;11828;51.508;18.118;2024-03-08T13:25:09;18.05;;;11.70;;
23310;SDS011;11828;51.508;18.118;2024-03-08T13:27:41;17.83;;;13.10;;
23310;SDS011;11828;51.508;18.118;2024-03-08T13:30:09;22.50;;;15.38;;
23310;SDS011;11828;51.508;18.118;2024-03-08T13:32:40;20.45;;;14.60;;
23310;SDS011;11828;51.508;18.118;2024-03-08T13:35:11;15.52;;;11.23;;
23310;SDS011;11828;51.508;18.118;2024-03-08T13:37:42;15.85;;;10.73;;
23310;SDS011;11828;51.508;18.118;2024-03-08T13:40:10;18.83;;;12.32;;
23310;SDS011;11828;51.508;18.118;2024-03-08T13:42:39;14.93;;;10.20;;
23310;SDS011;11828;51.508;18.118;2024-03-08T13:45:08;18.83;;;11.90;;
23310;SDS011;11828;51.508;18.118;2024-03-08T13:47:37;18.52;;;12.77;;
23310;SDS011;11828;51.508;18.118;2024-03-08T13:50:05;17.42;;;11.48;;
23310;SDS011;11828;51.508;18.118;2024-03-08T13:52:53;16.33;;;12.35;;
23310;SDS011;11828;51.508;18.118;2024-03-08T13:55:23;17.95;;;12.68;;
23310;SDS011;11828;51.508;18.118;2024-03-08T13:57:53;15.50;;;10.85;;
23310;SDS011;11828;51.508;18.118;2024-03-08T14:00:19;16.08;;;10.75;;
23310;SDS011;11828;51.508;18.118;2024-03-08T14:02:52;16.25;;;10.30;;
23310;SDS011;11828;51.508;18.118;2024-03-08T14:05:19;16.85;;;12.00;;
23310;SDS011;11828;51.508;18.118;2024-03-08T14:07:46;17.92;;;11.20;;
23310;SDS011;11828;51.508;18.118;2024-03-08T14:10:14;17.33;;;12.25;;
23310;SDS011;11828;51.508;18.118;2024-03-08T14:12:42;18.60;;;11.20;;
23310;SDS011;11828;51.508;18.118;2024-03-08T14:15:09;18.52;;;12.13;;
23310;SDS011;11828;51.508;18.118;2024-03-08T14:17:38;19.92;;;12.68;;
23310;SDS011;11828;51.508;18.118;2024-03-08T14:20:05;19.65;;;12.45;;
23310;SDS011;11828;51.508;18.118;2024-03-08T14:22:35;22.15;;;12.05;;
23310;SDS011;11828;51.508;18.118;2024-03-08T14:25:02;19.52;;;11.90;;
23310;SDS011;11828;51.508;18.118;2024-03-08T14:27:31;19.52;;;11.65;;
23310;SDS011;11828;51.508;18.118;2024-03-08T14:29:58;23.83;;;12.95;;
23310;SDS011;11828;51.508;18.118;2024-03-08T14:32:26;23.40;;;13.10;;